Big Bear Station Historical Data
Daily Summary for January 9, 2017 Units:  English    Metric   Both
« Previous Day
Next Day »
Daily Weekly Monthly Yearly Custom
  High: Low: Average:
Temperature: 42.8 °F 32.4 °F 38.7 °F
Dew Point: 40.3 °F 4.2 °F 29.3 °F
Humidity: 97 % 24 % 73 %
Wind Speed: 11.4 mph 0.0 mph 3.5 mph
Wind Gust: -999.0 mph - -
Wind:- - SW
Pressure: 23.61 in 23.49 in -
Precipitation: 1.10 in    
Historical Graphs
 
 
Tabular Data for January 9, 2017
Time Temperature Dew Point Pressure Wind Wind Speed Wind Gust Humidity Rainfall Rate (Hourly)
00:26 41.4 °F 35.7 °F 23.61 in ESE 6.3 mph -999.0 mph 80 % 0 in
00:42 41.2 °F 36.1 °F 23.57 in West 2.7 mph -999.0 mph 82 % 0 in
00:57 42.8 °F 37.4 °F 23.59 in NNE 5.8 mph -999.0 mph 81 % 0 in
01:12 41.7 °F 36.6 °F 23.56 in SSE 4.7 mph -999.0 mph 82 % 0 in
01:27 41.5 °F 36.4 °F 23.57 in SSE 5.8 mph -999.0 mph 82 % 0 in
01:43 41.5 °F 36.1 °F 23.58 in SW 6.3 mph -999.0 mph 81 % 0 in
01:59 39.9 °F 36.1 °F 23.59 in SSW 3.7 mph -999.0 mph 86 % 0 in
02:14 40.1 °F 35.4 °F 23.58 in SSW 7.8 mph -999.0 mph 83 % 0 in
02:30 39.7 °F 34.7 °F 23.57 in South 4.2 mph -999.0 mph 82 % 0 in
02:45 41.4 °F 35.1 °F 23.54 in SSE 4.2 mph -999.0 mph 78 % 0 in
03:00 41.9 °F 35.2 °F 23.54 in SW 3.2 mph -999.0 mph 77 % 0 in
03:16 42.1 °F 34.7 °F 23.53 in NW 3.2 mph -999.0 mph 75 % 0 in
03:31 41.5 °F 34.5 °F 23.56 in South 7.3 mph -999.0 mph 76 % 0 in
03:46 41.2 °F 35.5 °F 23.54 in SSE 6.8 mph -999.0 mph 80 % 0 in
04:01 40.6 °F 37.0 °F 23.54 in NE 5.3 mph -999.0 mph 87 % 0 in
04:17 40.3 °F 37.0 °F 23.52 in SSE 5.3 mph -999.0 mph 88 % 0 in
04:32 39.7 °F 37.3 °F 23.51 in West 1.1 mph -999.0 mph 91 % 0 in
04:47 39.4 °F 37.8 °F 23.51 in ESE 2.2 mph -999.0 mph 94 % 0 in
05:03 41.0 °F 39.7 °F 23.49 in South 1.1 mph -999.0 mph 95 % 0 in
05:18 39.4 °F 37.5 °F 23.51 in West 1.7 mph -999.0 mph 93 % 0 in
05:33 37.2 °F 35.1 °F 23.51 in SSE 1.7 mph -999.0 mph 92 % 0 in
05:49 37.2 °F 35.9 °F 23.51 in NNW 2.7 mph -999.0 mph 95 % 0 in
06:04 39.4 °F 38.4 °F 23.51 in SSE 5.3 mph -999.0 mph 96 % 0 in
06:20 39.7 °F 38.1 °F 23.51 in North 11.4 mph -999.0 mph 94 % 0 in
06:35 39.4 °F 38.1 °F 23.51 in NW 8.3 mph -999.0 mph 95 % 0 in
06:50 39.2 °F 37.6 °F 23.52 in SSE 5.3 mph -999.0 mph 94 % 0 in
07:05 39.9 °F 38.6 °F 23.51 in NNW 3.2 mph -999.0 mph 95 % 0 in
07:20 40.5 °F 38.9 °F 23.50 in NNW 10.4 mph -999.0 mph 94 % 0 in
07:36 40.6 °F 39.3 °F 23.50 in South 3.2 mph -999.0 mph 95 % 0 in
07:51 40.6 °F 39.5 °F 23.50 in NNE 6.8 mph -999.0 mph 96 % 0 in
08:06 41.0 °F 40.2 °F 23.49 in West 3.7 mph -999.0 mph 97 % 0 in
08:21 41.4 °F 40.3 °F 23.49 in NE 3.2 mph -999.0 mph 96 % 0 in
08:36 41.4 °F 40.3 °F 23.50 in WSW 4.7 mph -999.0 mph 96 % 0 in
08:52 41.5 °F 40.2 °F 23.51 in ESE 4.7 mph -999.0 mph 95 % 0 in
09:07 41.4 °F 40.1 °F 23.53 in WSW 4.2 mph -999.0 mph 95 % 0 in
09:22 40.8 °F 39.5 °F 23.53 in South 3.2 mph -999.0 mph 95 % 0 in
09:38 41.4 °F 40.1 °F 23.55 in WSW 1.1 mph -999.0 mph 95 % 0 in
09:53 41.7 °F 40.1 °F 23.55 in WSW 1.7 mph -999.0 mph 94 % 0 in
10:08 41.5 °F 39.3 °F 23.55 in NW 2.2 mph -999.0 mph 92 % 0 in
10:24 41.7 °F 39.0 °F 23.55 in SSW 1.7 mph -999.0 mph 90 % 0 in
10:39 41.2 °F 38.2 °F 23.55 in SSW 3.2 mph -999.0 mph 89 % 0 in
10:54 41.0 °F 37.4 °F 23.53 in SSE 2.7 mph -999.0 mph 87 % 0 in
11:09 40.8 °F 37.5 °F 23.54 in SW 2.2 mph -999.0 mph 88 % 0 in
11:25 40.8 °F 36.9 °F 23.53 in SSW 3.2 mph -999.0 mph 86 % 0 in
11:40 41.0 °F 36.8 °F 23.53 in SSE 4.2 mph -999.0 mph 85 % 0 in
11:56 41.2 °F 37.0 °F 23.51 in ESE 2.2 mph -999.0 mph 85 % 0 in
12:11 40.6 °F 36.1 °F 23.51 in South 6.8 mph -999.0 mph 84 % 0 in
12:26 41.2 °F 35.8 °F 23.51 in West 2.7 mph -999.0 mph 81 % 0 in
12:41 40.1 °F 34.7 °F 23.51 in SE 6.3 mph -999.0 mph 81 % 0 in
12:57 39.7 °F 34.7 °F 23.51 in SW 4.7 mph -999.0 mph 82 % 0 in
13:12 39.2 °F 33.9 °F 23.51 in NNW 2.2 mph -999.0 mph 81 % 0 in
13:27 39.4 °F 34.4 °F 23.52 in South 2.7 mph -999.0 mph 82 % 0 in
13:43 39.4 °F 33.1 °F 23.51 in NE 1.7 mph -999.0 mph 78 % 0 in
13:58 39.0 °F 33.0 °F 23.52 in West 1.7 mph -999.0 mph 79 % 0 in
14:14 39.2 °F 33.6 °F 23.51 in NNW 4.2 mph -999.0 mph 80 % 0 in
14:29 38.7 °F 33.1 °F 23.52 in SSW 2.2 mph -999.0 mph 80 % 0 in
14:44 38.3 °F 32.7 °F 23.51 in NNW 2.7 mph -999.0 mph 80 % 0 in
14:59 37.9 °F 32.3 °F 23.50 in NW 7.3 mph -999.0 mph 80 % 0 in
15:14 37.6 °F 32.6 °F 23.49 in NW 2.7 mph -999.0 mph 82 % 0 in
15:30 37.0 °F 32.6 °F 23.51 in WSW 2.2 mph -999.0 mph 84 % 0 in
15:45 36.7 °F 32.6 °F 23.51 in WSW 3.7 mph -999.0 mph 85 % 0 in
16:00 36.5 °F 30.3 °F 23.51 in South 1.7 mph -999.0 mph 78 % 0 in
16:15 36.0 °F 30.4 °F 23.51 in WNW 4.2 mph -999.0 mph 80 % 0 in
16:30 35.1 °F 30.5 °F 23.51 in NW 4.7 mph -999.0 mph 83 % 0 in
16:46 34.3 °F 29.4 °F 23.51 in SW 1.1 mph -999.0 mph 82 % 0 in
17:01 34.0 °F 28.2 °F 23.51 in Calm   -999.0 mph 79 % 0 in
17:16 33.6 °F 27.2 °F 23.51 in West 1.1 mph -999.0 mph 77 % 0 in
17:32 33.4 °F 27.0 °F 23.51 in SSW 1.7 mph -999.0 mph 77 % 0 in
17:47 33.3 °F 23.9 °F 23.51 in South 2.7 mph -999.0 mph 68 % 0 in
18:02 33.1 °F 19.1 °F 23.52 in South 1.1 mph -999.0 mph 56 % 0 in
18:17 32.4 °F 20.1 °F 23.52 in Calm   -999.0 mph 60 % 0 in
18:33 33.3 °F 19.7 °F 23.51 in WSW 1.7 mph -999.0 mph 57 % 0 in
18:48 33.3 °F 20.1 °F 23.51 in West 1.1 mph -999.0 mph 58 % 0 in
19:03 33.4 °F 18.5 °F 23.51 in NW 1.7 mph -999.0 mph 54 % 0 in
19:18 33.8 °F 18.0 °F 23.51 in WNW 2.2 mph -999.0 mph 52 % 0 in
19:34 35.2 °F 12.7 °F 23.51 in NW 2.2 mph -999.0 mph 39 % 0 in
19:49 36.7 °F 11.6 °F 23.52 in Calm   -999.0 mph 35 % 0 in
20:04 36.5 °F 16.1 °F 23.51 in NNW 2.2 mph -999.0 mph 43 % 0 in
20:19 36.3 °F 9.2 °F 23.51 in WNW 4.7 mph -999.0 mph 32 % 0 in
20:34 37.8 °F 4.2 °F 23.52 in North 4.2 mph -999.0 mph 24 % 0 in
20:50 37.0 °F 6.1 °F 23.52 in NW 4.2 mph -999.0 mph 27 % 0 in
21:05 36.9 °F 6.0 °F 23.52 in West 2.2 mph -999.0 mph 27 % 0 in
21:20 37.0 °F 6.9 °F 23.52 in WSW 2.2 mph -999.0 mph 28 % 0 in
21:36 37.4 °F 7.2 °F 23.51 in NNW 4.7 mph -999.0 mph 28 % 0 in
21:51 37.4 °F 8.0 °F 23.51 in WNW 3.7 mph -999.0 mph 29 % 0 in
22:06 36.5 °F 10.1 °F 23.51 in West 1.1 mph -999.0 mph 33 % 0 in
22:22 37.6 °F 4.9 °F 23.50 in West 2.2 mph -999.0 mph 25 % 0 in
22:37 37.2 °F 5.4 °F 23.49 in NW 3.7 mph -999.0 mph 26 % 0 in
22:52 37.6 °F 4.9 °F 23.50 in WSW 4.2 mph -999.0 mph 25 % 0 in
23:08 37.2 °F 7.1 °F 23.49 in NW 3.7 mph -999.0 mph 28 % 0 in
23:23 36.9 °F 9.8 °F 23.50 in North 2.2 mph -999.0 mph 32 % 0 in
23:38 36.3 °F 8.5 °F 23.50 in NNW 3.2 mph -999.0 mph 31 % 0 in
23:54 36.9 °F 8.3 °F 23.50 in North 2.2 mph -999.0 mph 30 % 0 in
Big Bear CA Weather
Compliments of Weather Underground - 1.5 mb